createdAt,value
2018-05-15T00:00:32.722Z,98.28
2018-05-15T00:01:32.709Z,97.89
2018-05-15T00:02:32.702Z,98.18
2018-05-15T00:03:32.695Z,97.80
2018-05-15T00:04:32.683Z,97.32
2018-05-15T00:05:32.674Z,97.71
2018-05-15T00:06:32.663Z,97.99
2018-05-15T00:07:32.651Z,97.61
2018-05-15T00:08:32.648Z,97.23
2018-05-15T00:09:32.638Z,97.99
2018-05-15T00:10:32.624Z,97.42
2018-05-15T00:11:32.613Z,97.61
2018-05-15T00:12:32.605Z,97.61
2018-05-15T00:13:32.597Z,97.32
2018-05-15T00:14:32.585Z,97.13
2018-05-15T00:15:32.579Z,97.03
2018-05-15T00:16:32.569Z,97.52
2018-05-15T00:17:32.557Z,97.75
2018-05-15T00:18:32.550Z,97.52
2018-05-15T00:19:32.535Z,97.61
2018-05-15T00:20:32.530Z,96.32
2018-05-15T00:21:32.528Z,96.46
2018-05-15T00:22:32.511Z,96.17
2018-05-15T00:23:32.500Z,95.98
2018-05-15T00:24:32.494Z,96.08
2018-05-15T00:25:32.481Z,95.61
2018-05-15T00:26:32.471Z,94.27
2018-05-15T00:27:32.461Z,94.65
2018-05-15T00:28:32.454Z,94.93
2018-05-15T00:29:32.442Z,95.22
2018-05-15T00:30:32.434Z,95.79
2018-05-15T00:31:32.423Z,96.84
2018-05-15T00:32:32.419Z,97.03
2018-05-15T00:33:32.406Z,97.99
2018-05-15T00:34:32.394Z,97.99
2018-05-15T00:35:32.384Z,98.03
2018-05-15T00:36:32.374Z,97.80
2018-05-15T00:37:32.363Z,98.71
2018-05-15T00:38:32.357Z,98.80
2018-05-15T00:39:32.345Z,99.66
2018-05-15T00:40:32.337Z,99.18
2018-05-15T00:41:32.326Z,98.99
2018-05-15T00:42:32.319Z,98.71
2018-05-15T00:43:32.309Z,98.42
2018-05-15T00:44:32.301Z,97.08
2018-05-15T00:45:32.287Z,98.03
2018-05-15T00:46:32.279Z,98.13
2018-05-15T00:47:32.267Z,97.56
2018-05-15T00:48:32.258Z,97.08
2018-05-15T00:49:32.253Z,97.27
2018-05-15T00:50:32.240Z,96.89
2018-05-15T00:51:32.229Z,97.47
2018-05-15T00:52:32.218Z,98.32
2018-05-15T00:53:32.212Z,98.03
2018-05-15T00:54:32.212Z,97.47
2018-05-15T00:55:32.191Z,97.56
2018-05-15T00:56:32.183Z,97.75
2018-05-15T00:57:32.169Z,98.03
2018-05-15T00:58:32.159Z,98.13
2018-05-15T00:59:32.149Z,97.66
2018-05-15T01:00:32.144Z,97.18
2018-05-15T01:01:32.131Z,97.66
2018-05-15T01:02:32.123Z,97.56
2018-05-15T01:03:32.117Z,98.13
2018-05-15T01:05:32.082Z,97.85
2018-05-15T01:06:32.073Z,98.23
2018-05-15T01:07:32.062Z,98.71
2018-05-15T01:08:32.052Z,99.57
2018-05-15T01:09:32.049Z,99.37
2018-05-15T01:10:32.039Z,99.85
2018-05-15T01:11:32.028Z,99.57
2018-05-15T01:12:32.017Z,98.18
2018-05-15T01:13:32.002Z,98.37
2018-05-15T01:14:32.002Z,98.94
2018-05-15T01:15:31.988Z,98.23
2018-05-15T01:16:31.979Z,98.13
2018-05-15T01:17:31.965Z,97.27
2018-05-15T01:18:31.957Z,98.13
2018-05-15T01:19:31.946Z,97.47
2018-05-15T01:20:31.936Z,97.08
2018-05-15T01:21:31.927Z,96.51
2018-05-15T01:22:31.921Z,96.51
2018-05-15T01:23:31.910Z,97.27
2018-05-15T01:24:31.906Z,97.47
2018-05-15T01:25:31.889Z,97.47
2018-05-15T01:26:31.876Z,97.37
2018-05-15T01:27:31.867Z,97.85
2018-05-15T01:28:31.855Z,98.03
2018-05-15T01:29:31.850Z,98.52
2018-05-15T01:30:31.836Z,98.85
2018-05-15T01:31:31.826Z,98.75
2018-05-15T01:32:31.820Z,99.80
2018-05-15T01:33:31.807Z,99.99
2018-05-15T01:34:31.800Z,99.99
2018-05-15T01:35:31.804Z,99.99
2018-05-15T01:36:31.778Z,99.99
2018-05-15T01:37:31.771Z,99.99
2018-05-15T01:38:31.756Z,99.99
2018-05-15T01:39:31.752Z,99.99
2018-05-15T01:40:31.794Z,99.99
2018-05-15T01:41:31.731Z,99.99
2018-05-15T01:42:31.716Z,99.99
2018-05-15T01:43:31.708Z,99.99
2018-05-15T01:44:31.697Z,99.99
2018-05-15T01:45:31.692Z,99.99
2018-05-15T01:46:31.685Z,99.99
2018-05-15T01:47:31.673Z,99.99
2018-05-15T01:48:31.658Z,99.99
2018-05-15T01:49:31.647Z,99.99
2018-05-15T01:50:31.856Z,99.99
2018-05-15T01:51:31.632Z,99.99
2018-05-15T01:52:31.618Z,99.99
2018-05-15T01:53:31.662Z,99.90
2018-05-15T01:54:31.596Z,99.99
2018-05-15T01:55:31.592Z,99.99
2018-05-15T01:56:31.579Z,99.80
2018-05-15T01:57:31.567Z,99.52
2018-05-15T01:58:31.558Z,98.75
2018-05-15T01:59:31.545Z,99.04
2018-05-15T02:00:31.537Z,99.99
2018-05-15T02:01:31.532Z,99.99
2018-05-15T02:02:31.529Z,99.99
2018-05-15T02:03:31.511Z,99.99
2018-05-15T02:04:31.504Z,99.99
2018-05-15T02:05:31.489Z,99.99
2018-05-15T02:06:31.480Z,99.99
2018-05-15T02:07:31.466Z,99.99
2018-05-15T02:08:31.463Z,99.99
2018-05-15T02:09:31.454Z,99.99
2018-05-15T02:10:31.442Z,99.99
2018-05-15T02:11:31.425Z,99.99
2018-05-15T02:12:31.416Z,99.99
2018-05-15T02:13:31.407Z,99.99
2018-05-15T02:14:31.407Z,99.99
2018-05-15T02:15:31.385Z,99.99
2018-05-15T02:16:31.378Z,99.99
2018-05-15T02:17:31.371Z,99.99
2018-05-15T02:18:31.358Z,99.99
2018-05-15T02:19:31.347Z,99.99
2018-05-15T02:20:31.343Z,99.99
2018-05-15T02:21:31.330Z,99.99
2018-05-15T02:22:31.323Z,99.99
2018-05-15T02:23:31.312Z,99.99
2018-05-15T02:24:31.298Z,99.99
2018-05-15T02:25:31.287Z,99.99
2018-05-15T02:26:31.276Z,99.99
2018-05-15T02:27:31.268Z,99.99
2018-05-15T02:28:31.260Z,99.99
2018-05-15T02:29:31.248Z,99.99
2018-05-15T02:30:31.291Z,99.99
2018-05-15T02:31:31.230Z,99.99
2018-05-15T02:32:31.219Z,99.99
2018-05-15T02:33:31.215Z,99.99
2018-05-15T02:34:31.200Z,99.99
2018-05-15T02:35:31.191Z,99.99
2018-05-15T02:36:31.191Z,99.99
2018-05-15T02:37:31.187Z,99.99
2018-05-15T02:38:31.159Z,99.99
2018-05-15T02:39:31.153Z,99.99
2018-05-15T02:40:31.149Z,99.99
2018-05-15T02:41:31.137Z,99.99
2018-05-15T02:42:31.123Z,99.99
2018-05-15T02:43:31.109Z,99.99
2018-05-15T02:44:31.104Z,99.99
2018-05-15T02:45:31.099Z,99.99
2018-05-15T02:46:31.081Z,99.99
2018-05-15T02:47:31.069Z,99.99
2018-05-15T02:48:31.068Z,99.99
2018-05-15T02:49:31.053Z,99.99
2018-05-15T02:50:31.042Z,99.99
2018-05-15T02:51:31.031Z,99.99
2018-05-15T02:52:31.025Z,99.99
2018-05-15T02:53:31.015Z,99.99
2018-05-15T02:54:31.005Z,99.99
2018-05-15T02:55:31.000Z,99.99
2018-05-15T02:56:30.995Z,99.99
2018-05-15T02:57:30.980Z,99.99
2018-05-15T02:58:30.968Z,99.99
2018-05-15T02:59:30.956Z,99.99
2018-05-15T03:00:30.946Z,99.99
2018-05-15T03:01:30.934Z,99.99
2018-05-15T03:02:30.921Z,99.99
2018-05-15T03:03:30.918Z,99.99
2018-05-15T03:04:30.907Z,99.99
2018-05-15T04:50:30.308Z,99.99
2018-05-15T04:51:30.234Z,99.99
2018-05-15T04:52:30.226Z,99.99
2018-05-15T04:53:30.221Z,99.99
2018-05-15T04:54:30.215Z,99.99
2018-05-15T04:55:30.208Z,99.99
2018-05-15T04:56:30.195Z,99.99
2018-05-15T04:57:30.177Z,99.99
2018-05-15T04:58:30.193Z,99.99
2018-05-15T04:59:30.167Z,99.99
2018-05-15T05:03:01.460Z,99.99
2018-05-15T05:04:00.841Z,99.99
2018-05-15T05:05:00.841Z,99.99
2018-05-15T05:06:00.834Z,99.99
2018-05-15T05:07:00.814Z,99.99
2018-05-15T05:08:00.805Z,99.99
2018-05-15T05:09:00.798Z,99.99
2018-05-15T05:10:00.786Z,99.99
2018-05-15T05:11:00.781Z,99.99
2018-05-15T05:12:00.770Z,99.99
2018-05-15T05:13:00.758Z,99.99
2018-05-15T05:14:00.754Z,99.99
2018-05-15T05:15:00.747Z,99.99
2018-05-15T05:16:00.729Z,99.99
2018-05-15T05:17:00.764Z,99.99
2018-05-15T05:18:00.790Z,99.99
2018-05-15T05:19:00.701Z,99.99
2018-05-15T05:20:00.700Z,99.99
2018-05-15T05:21:00.736Z,99.99
2018-05-15T05:22:00.677Z,99.99
2018-05-15T05:23:00.663Z,99.99
2018-05-15T05:24:00.655Z,99.99
2018-05-15T05:25:00.648Z,99.99
2018-05-15T05:26:00.648Z,99.99
2018-05-15T05:27:00.629Z,99.99
2018-05-15T05:28:00.618Z,99.99
2018-05-15T05:29:00.606Z,99.99
2018-05-15T05:30:53.040Z,99.99
2018-05-15T05:31:53.085Z,99.99
2018-05-15T05:32:53.030Z,99.99
2018-05-15T05:33:53.018Z,99.99
2018-05-15T05:34:52.994Z,99.99
2018-05-15T05:35:52.986Z,99.99
2018-05-15T05:36:52.983Z,99.99
2018-05-15T05:37:52.966Z,99.99
2018-05-15T05:38:52.967Z,99.99
2018-05-15T05:39:52.953Z,99.99
2018-05-15T05:40:52.945Z,99.99
2018-05-15T05:41:52.940Z,99.99
2018-05-15T05:42:52.937Z,99.99
2018-05-15T05:43:52.923Z,99.99
2018-05-15T05:44:52.912Z,99.99
2018-05-15T05:45:52.908Z,99.99
2018-05-15T05:46:52.902Z,99.99
2018-05-15T05:47:52.895Z,99.99
2018-05-15T05:48:52.886Z,99.99
2018-05-15T05:49:52.887Z,99.99
2018-05-15T05:50:52.880Z,99.99
2018-05-15T05:51:52.910Z,99.99
2018-05-15T05:52:52.858Z,99.99
2018-05-15T05:53:52.852Z,99.99
2018-05-15T05:54:52.839Z,99.99
2018-05-15T05:55:52.826Z,99.99
2018-05-15T05:56:52.817Z,99.47
2018-05-15T05:57:52.807Z,99.99
2018-05-15T05:58:52.807Z,99.99
2018-05-15T05:59:52.797Z,99.47
2018-05-15T06:00:52.786Z,98.80
2018-05-15T06:01:52.774Z,98.52
2018-05-15T06:02:52.773Z,99.95
2018-05-15T06:03:52.762Z,99.99
2018-05-15T06:04:52.744Z,99.95
2018-05-15T06:05:52.737Z,99.66
2018-05-15T06:06:52.731Z,99.99
2018-05-15T06:07:52.717Z,99.99
2018-05-15T06:08:52.707Z,99.99
2018-05-15T06:09:52.701Z,99.99
2018-05-15T06:10:52.699Z,99.99
2018-05-15T06:11:52.683Z,99.99
2018-05-15T06:12:52.679Z,99.99
2018-05-15T06:13:52.664Z,99.99
2018-05-15T06:14:52.652Z,99.99
2018-05-15T06:15:52.646Z,99.99
2018-05-15T06:16:52.633Z,99.99
2018-05-15T06:17:52.623Z,99.99
2018-05-15T06:18:52.617Z,99.99
2018-05-15T06:19:52.612Z,99.52
2018-05-15T06:20:52.602Z,99.90
2018-05-15T06:21:52.589Z,99.99
2018-05-15T06:22:52.582Z,99.99
2018-05-15T06:23:52.570Z,99.99
2018-05-15T06:24:52.562Z,99.99
2018-05-15T06:25:52.550Z,99.99
2018-05-15T06:26:52.544Z,99.14
2018-05-15T06:27:52.529Z,99.52
2018-05-15T06:28:52.524Z,98.66
2018-05-15T06:29:52.517Z,98.75
2018-05-15T06:30:52.518Z,99.33
2018-05-15T06:31:52.495Z,99.43
2018-05-15T06:32:52.482Z,98.94
2018-05-15T06:33:52.473Z,97.99
2018-05-15T06:34:52.465Z,98.08
2018-05-15T06:35:52.456Z,97.42
2018-05-15T06:36:52.447Z,97.32
2018-05-15T06:37:52.444Z,97.23
2018-05-15T06:38:52.429Z,97.03
2018-05-15T06:39:52.424Z,96.84
2018-05-15T06:40:52.413Z,97.03
2018-05-15T06:41:52.396Z,98.23
2018-05-15T06:42:52.393Z,97.28
2018-05-15T06:43:52.382Z,97.18
2018-05-15T06:44:52.487Z,97.56
2018-05-15T06:45:52.361Z,97.28
2018-05-15T06:46:52.353Z,96.89
2018-05-15T06:47:52.347Z,97.37
2018-05-15T06:48:52.335Z,97.28
2018-05-15T06:49:52.321Z,97.08
2018-05-15T06:50:52.318Z,96.80
2018-05-15T06:51:52.304Z,95.36
2018-05-15T06:52:52.294Z,94.70
2018-05-15T06:53:52.286Z,94.74
2018-05-15T06:54:52.281Z,95.41
2018-05-15T06:55:52.275Z,95.41
2018-05-15T06:56:52.264Z,94.55
2018-05-15T06:57:52.248Z,94.84
2018-05-15T06:58:52.241Z,94.84
2018-05-15T06:59:52.232Z,94.07
2018-05-15T07:00:52.227Z,93.50
2018-05-15T07:01:52.226Z,92.54
2018-05-15T07:02:52.203Z,93.88
2018-05-15T07:03:52.195Z,93.98
2018-05-15T07:04:52.185Z,93.21
2018-05-15T07:05:52.180Z,93.88
2018-05-15T07:06:52.170Z,94.07
2018-05-15T07:07:52.168Z,93.40
2018-05-15T07:08:52.157Z,93.98
2018-05-15T07:09:52.145Z,94.17
2018-05-15T07:10:52.136Z,93.88
2018-05-15T07:11:52.128Z,93.88
2018-05-15T07:12:52.117Z,93.60
2018-05-15T07:13:52.105Z,94.17
2018-05-15T07:14:52.105Z,93.50
2018-05-15T07:15:52.096Z,94.07
2018-05-15T07:16:52.078Z,95.12
2018-05-15T07:17:52.073Z,93.98
2018-05-15T07:18:52.060Z,93.98
2018-05-15T07:19:52.053Z,94.36
2018-05-15T07:20:52.050Z,94.93
2018-05-15T07:21:52.034Z,95.22
2018-05-15T07:22:52.030Z,94.41
2018-05-15T07:23:52.018Z,95.22
2018-05-15T07:24:52.005Z,95.36
2018-05-15T07:25:52.004Z,95.94
2018-05-15T07:26:51.992Z,95.56
2018-05-15T07:27:51.986Z,95.94
2018-05-15T07:28:51.974Z,96.13
2018-05-15T07:29:51.969Z,96.32
2018-05-15T07:30:51.951Z,95.46
2018-05-15T07:31:51.950Z,95.56
2018-05-15T07:32:51.943Z,95.36
2018-05-15T07:33:51.925Z,96.61
2018-05-15T07:34:51.916Z,96.89
2018-05-15T07:35:51.912Z,96.99
2018-05-15T07:36:51.899Z,97.56
2018-05-15T07:37:51.889Z,97.66
2018-05-15T07:38:51.883Z,96.70
2018-05-15T07:39:51.871Z,96.89
2018-05-15T07:40:51.864Z,96.89
2018-05-15T07:41:51.855Z,95.75
2018-05-15T07:42:51.849Z,95.03
2018-05-15T07:43:51.837Z,94.07
2018-05-15T07:44:51.830Z,94.55
2018-05-15T07:45:51.820Z,95.22
2018-05-15T07:46:51.812Z,95.51
2018-05-15T07:47:51.800Z,95.51
2018-05-15T07:48:51.796Z,95.22
2018-05-15T07:49:51.782Z,95.32
2018-05-15T07:50:51.778Z,94.84
2018-05-15T07:51:51.767Z,95.07
2018-05-15T07:52:51.759Z,95.36
2018-05-15T07:53:51.747Z,95.27
2018-05-15T07:54:51.738Z,96.13
2018-05-15T07:55:51.739Z,96.13
2018-05-15T07:56:51.723Z,95.41
2018-05-15T07:57:51.713Z,94.84
2018-05-15T07:58:51.703Z,95.41
2018-05-15T07:59:51.693Z,95.51
2018-05-15T08:00:51.686Z,96.13
2018-05-15T08:01:51.676Z,96.18
2018-05-15T08:02:51.665Z,95.51
2018-05-15T08:03:51.658Z,95.22
2018-05-15T08:04:51.655Z,94.74
2018-05-15T08:05:51.640Z,94.93
2018-05-15T08:06:51.629Z,94.55
2018-05-15T08:07:51.622Z,94.84
2018-05-15T08:08:51.615Z,95.32
2018-05-15T08:09:51.602Z,94.74
2018-05-15T08:10:51.600Z,94.65
2018-05-15T08:11:51.584Z,95.03
2018-05-15T08:12:51.576Z,94.93
2018-05-15T08:13:51.567Z,95.12
2018-05-15T08:14:51.558Z,95.03
2018-05-15T08:15:51.554Z,95.51
2018-05-15T08:16:51.540Z,94.84
2018-05-15T08:17:51.536Z,94.36
2018-05-15T08:18:51.522Z,94.36
2018-05-15T08:19:51.520Z,95.03
2018-05-15T08:20:51.504Z,93.79
2018-05-15T08:21:51.498Z,94.65
2018-05-15T08:22:51.495Z,93.88
2018-05-15T08:23:51.485Z,93.88
2018-05-15T08:24:51.476Z,93.79
2018-05-15T08:25:51.467Z,93.12
2018-05-15T08:26:51.454Z,92.49
2018-05-15T08:27:51.446Z,93.74
2018-05-15T08:28:51.443Z,93.07
2018-05-15T08:29:51.435Z,93.50
2018-05-15T08:30:51.440Z,93.69
2018-05-15T08:31:51.411Z,92.69
2018-05-15T08:32:51.404Z,91.92
2018-05-15T08:33:51.394Z,91.73
2018-05-15T08:34:51.392Z,91.53
2018-05-15T08:35:51.379Z,92.59
2018-05-15T08:36:51.367Z,93.16
2018-05-15T08:37:51.360Z,93.16
2018-05-15T08:38:51.353Z,92.97
2018-05-15T08:39:51.349Z,92.59
2018-05-15T08:40:51.337Z,91.73
2018-05-15T08:41:51.325Z,92.59
2018-05-15T08:42:51.322Z,92.40
2018-05-15T08:43:51.309Z,92.59
2018-05-15T08:44:51.306Z,92.88
2018-05-15T08:45:51.293Z,93.64
2018-05-15T08:46:51.288Z,92.02
2018-05-15T08:47:51.280Z,92.40
2018-05-15T08:48:51.266Z,92.69
2018-05-15T08:49:51.262Z,92.88
2018-05-15T08:50:51.250Z,93.55
2018-05-15T08:51:51.242Z,92.69
2018-05-15T08:52:51.233Z,90.67
2018-05-15T08:53:51.230Z,91.06
2018-05-15T08:54:51.220Z,91.06
2018-05-15T08:55:51.209Z,91.01
2018-05-15T08:56:51.207Z,90.96
2018-05-15T08:57:51.195Z,90.77
2018-05-15T08:58:51.185Z,90.82
2018-05-15T08:59:51.176Z,90.82
2018-05-15T09:00:51.175Z,90.34
2018-05-15T09:01:51.166Z,90.15
2018-05-15T09:02:51.149Z,90.91
2018-05-15T09:03:51.146Z,91.01
2018-05-15T09:04:51.138Z,90.44
2018-05-15T09:05:51.134Z,90.53
2018-05-15T09:06:51.124Z,89.90
2018-05-15T09:07:51.110Z,88.85
2018-05-15T09:08:51.107Z,88.56
2018-05-15T09:09:51.097Z,87.80
2018-05-15T09:10:51.098Z,88.47
2018-05-15T09:11:51.085Z,86.79
2018-05-15T09:12:51.075Z,86.98
2018-05-15T09:13:51.065Z,86.79
2018-05-15T09:14:51.062Z,86.79
2018-05-15T09:15:51.052Z,85.16
2018-05-15T09:16:51.039Z,84.30
2018-05-15T09:17:51.039Z,84.68
2018-05-15T09:18:51.030Z,84.58
2018-05-15T09:19:51.018Z,85.25
2018-05-15T09:20:51.009Z,84.11
2018-05-15T09:21:51.000Z,83.34
2018-05-15T09:22:50.994Z,83.76
2018-05-15T09:23:50.985Z,82.86
2018-05-15T09:24:50.985Z,84.49
2018-05-15T09:25:50.976Z,84.97
2018-05-15T09:26:50.965Z,83.63
2018-05-15T09:27:50.958Z,84.01
2018-05-15T09:28:50.954Z,84.20
2018-05-15T09:29:50.947Z,83.63
2018-05-15T09:30:50.937Z,84.11
2018-05-15T09:31:50.929Z,84.11
2018-05-15T09:32:50.922Z,85.64
2018-05-15T09:33:50.920Z,86.21
2018-05-15T09:34:50.908Z,85.93
2018-05-15T09:35:50.904Z,85.64
2018-05-15T09:36:50.893Z,84.58
2018-05-15T09:37:50.899Z,85.83
2018-05-15T09:38:50.878Z,86.02
2018-05-15T09:39:50.875Z,84.20
2018-05-15T09:40:50.874Z,84.30
2018-05-15T09:41:50.861Z,84.58
2018-05-15T09:42:50.853Z,84.49
2018-05-15T09:43:50.844Z,84.78
2018-05-15T09:44:50.841Z,85.25
2018-05-15T09:45:50.837Z,85.06
2018-05-15T09:46:50.909Z,85.54
2018-05-15T09:47:50.817Z,85.93
2018-05-15T09:48:50.810Z,84.97
2018-05-15T09:49:50.809Z,85.25
2018-05-15T09:50:50.794Z,85.06
2018-05-15T09:51:50.786Z,83.92
2018-05-15T09:52:50.786Z,84.11
2018-05-15T09:53:50.775Z,85.16
2018-05-15T09:54:50.768Z,85.64
2018-05-15T09:55:50.761Z,84.88
2018-05-15T09:56:50.754Z,84.58
2018-05-15T09:57:50.745Z,84.88
2018-05-15T09:58:50.749Z,84.49
2018-05-15T09:59:50.734Z,84.11
2018-05-15T10:00:50.723Z,84.58
2018-05-15T10:01:50.720Z,85.45
2018-05-15T10:02:50.708Z,84.97
2018-05-15T10:03:50.702Z,85.54
2018-05-15T10:04:50.696Z,85.45
2018-05-15T10:05:50.687Z,85.21
2018-05-15T10:06:50.680Z,86.46
2018-05-15T10:07:50.689Z,86.17
2018-05-15T10:08:50.670Z,86.36
2018-05-15T10:09:50.658Z,86.36
2018-05-15T10:10:50.655Z,86.08
2018-05-15T10:11:50.653Z,87.03
2018-05-15T10:12:50.639Z,86.36
2018-05-15T10:13:50.631Z,86.65
2018-05-15T10:14:50.626Z,87.66
2018-05-15T10:15:50.620Z,87.85
2018-05-15T10:16:50.613Z,88.33
2018-05-15T10:17:50.608Z,88.33
2018-05-15T10:18:50.593Z,88.23
2018-05-15T10:19:50.646Z,89.38
2018-05-15T10:20:50.578Z,88.52
2018-05-15T10:21:50.576Z,89.29
2018-05-15T10:22:50.563Z,89.76
2018-05-15T10:23:50.555Z,90.44
2018-05-15T10:24:50.548Z,91.20
2018-05-15T10:25:50.543Z,91.77
2018-05-15T10:26:50.533Z,91.77
2018-05-15T10:27:50.523Z,92.54
2018-05-15T10:28:50.520Z,92.63
2018-05-15T10:29:50.516Z,91.77
2018-05-15T10:30:50.501Z,90.96
2018-05-15T10:31:50.492Z,91.83
2018-05-15T10:32:50.486Z,92.30
2018-05-15T10:33:50.481Z,92.69
2018-05-15T10:34:50.469Z,93.64
2018-05-15T10:35:50.463Z,94.21
2018-05-15T10:36:50.453Z,93.93
2018-05-15T10:37:50.449Z,93.64
2018-05-15T10:38:50.438Z,93.64
2018-05-15T10:39:50.433Z,93.45
2018-05-15T10:40:50.428Z,94.41
2018-05-15T10:41:50.412Z,94.21
2018-05-15T10:42:50.405Z,95.07
2018-05-15T10:43:50.478Z,95.94
2018-05-15T10:44:50.393Z,95.36
2018-05-15T10:45:50.385Z,95.94
2018-05-15T10:46:50.373Z,95.36
2018-05-15T10:47:50.365Z,95.94
2018-05-15T10:48:50.356Z,95.75
2018-05-15T10:49:50.353Z,95.27
2018-05-15T10:50:50.364Z,95.89
2018-05-15T10:51:50.333Z,95.89
2018-05-15T10:52:50.324Z,95.61
2018-05-15T10:53:50.321Z,97.04
2018-05-15T10:54:50.308Z,97.71
2018-05-15T10:55:50.301Z,98.09
2018-05-15T10:56:50.292Z,98.28
2018-05-15T10:57:50.278Z,98.57
2018-05-15T10:58:50.276Z,99.33
2018-05-15T10:59:50.266Z,99.43
2018-05-15T11:00:50.253Z,98.75
2018-05-15T11:01:50.246Z,99.62
2018-05-15T11:02:50.241Z,98.75
2018-05-15T11:03:50.228Z,97.85
2018-05-15T11:04:50.221Z,94.79
2018-05-15T11:05:50.213Z,97.23
2018-05-15T11:06:50.213Z,99.66
2018-05-15T11:07:50.195Z,97.94
2018-05-15T11:08:50.189Z,96.80
2018-05-15T11:09:50.175Z,95.61
2018-05-15T11:10:50.175Z,96.18
2018-05-15T11:11:50.176Z,94.89
2018-05-15T11:12:50.186Z,96.37
2018-05-15T11:13:50.141Z,95.79
2018-05-15T11:14:50.139Z,94.46
2018-05-15T11:15:50.126Z,92.64
2018-05-15T11:16:50.115Z,92.54
2018-05-15T11:17:50.105Z,93.69
2018-05-15T11:18:50.098Z,94.07
2018-05-15T11:19:50.095Z,94.55
2018-05-15T11:20:50.092Z,94.93
2018-05-15T11:21:50.080Z,95.41
2018-05-15T11:22:50.069Z,96.37
2018-05-15T11:23:50.058Z,96.84
2018-05-15T11:24:50.044Z,97.42
2018-05-15T11:25:50.032Z,98.18
2018-05-15T11:26:50.026Z,98.47
2018-05-15T11:27:50.016Z,98.85
2018-05-15T11:28:50.014Z,99.33
2018-05-15T11:29:50.004Z,99.62
2018-05-15T11:30:49.990Z,99.33
2018-05-15T11:31:49.985Z,99.71
2018-05-15T11:32:49.972Z,98.57
2018-05-15T11:33:49.964Z,97.99
2018-05-15T11:34:49.965Z,95.94
2018-05-15T11:35:49.949Z,96.99
2018-05-15T11:36:49.947Z,96.89
2018-05-15T11:37:49.932Z,97.47
2018-05-15T11:38:49.926Z,97.47
2018-05-15T11:39:49.916Z,97.18
2018-05-15T11:40:49.908Z,96.22
2018-05-15T11:41:49.992Z,97.56
2018-05-15T11:42:49.893Z,97.47
2018-05-15T11:43:49.882Z,97.75
2018-05-15T11:44:49.868Z,97.47
2018-05-15T11:45:49.865Z,97.66
2018-05-15T11:46:49.854Z,97.75
2018-05-15T11:47:50.357Z,97.66
2018-05-15T11:48:50.809Z,97.56
2018-05-15T11:49:50.741Z,98.90
2018-05-15T11:50:50.891Z,95.56
2018-05-15T11:51:50.701Z,95.75
2018-05-15T11:52:50.425Z,97.85
2018-05-15T11:53:49.853Z,97.18
2018-05-15T11:54:49.788Z,96.80
2018-05-15T11:55:49.816Z,96.08
2018-05-15T11:56:49.773Z,95.94
2018-05-15T11:57:49.791Z,94.74
2018-05-15T11:58:49.757Z,94.17
2018-05-15T11:59:49.759Z,93.30
2018-05-15T12:00:49.740Z,94.07
2018-05-15T12:01:49.727Z,95.12
2018-05-15T12:02:49.795Z,94.26
2018-05-15T12:03:49.790Z,92.63
2018-05-15T12:04:49.702Z,91.53
2018-05-15T12:05:49.693Z,91.82
2018-05-15T12:06:49.688Z,92.78
2018-05-15T12:07:49.679Z,90.58
2018-05-15T12:08:49.672Z,89.62
2018-05-15T12:09:49.669Z,90.09
2018-05-15T12:10:49.656Z,89.43
2018-05-15T12:11:49.649Z,90.86
2018-05-15T12:12:49.760Z,90.67
2018-05-15T12:13:49.643Z,88.85
2018-05-15T12:14:49.623Z,89.72
2018-05-15T12:15:49.615Z,90.62
2018-05-15T12:16:49.612Z,91.49
2018-05-15T12:17:49.601Z,91.77
2018-05-15T12:18:49.601Z,90.14
2018-05-15T12:19:49.587Z,90.14
2018-05-15T12:20:49.588Z,88.23
2018-05-15T12:21:49.579Z,88.46
2018-05-15T12:22:49.563Z,88.46
2018-05-15T12:23:49.557Z,89.61
2018-05-15T12:24:49.550Z,87.41
2018-05-15T12:25:49.543Z,85.58
2018-05-15T12:26:49.537Z,86.01
2018-05-15T12:27:49.527Z,85.78
2018-05-15T12:28:49.527Z,85.53
2018-05-15T12:29:49.557Z,85.92
2018-05-15T12:30:49.507Z,86.21
2018-05-15T12:31:49.504Z,87.45
2018-05-15T12:32:49.495Z,86.21
2018-05-15T12:33:49.483Z,84.67
2018-05-15T12:34:49.479Z,84.71
2018-05-15T12:35:49.530Z,86.05
2018-05-15T12:36:49.463Z,85.96
2018-05-15T12:37:49.457Z,85.58
2018-05-15T12:38:49.459Z,84.23
2018-05-15T12:39:49.450Z,83.85
2018-05-15T12:40:49.437Z,83.65
2018-05-15T12:41:49.531Z,83.61
2018-05-15T12:42:49.424Z,83.75
2018-05-15T12:43:49.425Z,84.67
2018-05-15T12:44:49.411Z,85.38
2018-05-15T12:45:49.407Z,85.10
2018-05-15T12:46:49.494Z,85.58
2018-05-15T12:47:49.431Z,82.98
2018-05-15T12:48:49.452Z,82.07
2018-05-15T12:49:49.383Z,81.97
2018-05-15T12:50:49.372Z,81.92
2018-05-15T12:51:49.371Z,81.24
2018-05-15T12:52:49.362Z,78.78
2018-05-15T12:53:49.353Z,78.65
2018-05-15T12:54:49.348Z,79.65
2018-05-15T12:55:49.343Z,79.27
2018-05-15T12:56:49.336Z,78.11
2018-05-15T12:57:49.331Z,79.36
2018-05-15T12:58:49.330Z,77.63
2018-05-15T12:59:49.327Z,76.09
2018-05-15T13:00:49.315Z,76.00
2018-05-15T13:01:49.326Z,75.90
2018-05-15T13:02:49.305Z,76.19
2018-05-15T13:03:49.302Z,76.19
2018-05-15T13:04:49.296Z,75.65
2018-05-15T13:05:49.305Z,76.52
2018-05-15T13:06:49.282Z,75.75
2018-05-15T13:07:49.282Z,74.98
2018-05-15T13:08:49.272Z,72.25
2018-05-15T13:09:49.268Z,73.31
2018-05-15T13:10:49.262Z,73.02
2018-05-15T13:11:49.263Z,75.42
2018-05-15T13:12:49.252Z,75.81
2018-05-15T13:13:49.248Z,76.48
2018-05-15T13:14:49.250Z,76.29
2018-05-15T13:15:49.238Z,75.84
2018-05-15T13:16:49.234Z,75.75
2018-05-15T13:17:49.229Z,74.98
2018-05-15T13:18:49.227Z,75.59
2018-05-15T13:19:49.225Z,72.61
2018-05-15T13:20:49.216Z,71.26
2018-05-15T13:21:49.209Z,71.40
2018-05-15T13:22:49.208Z,71.55
2018-05-15T13:23:49.199Z,70.88
2018-05-15T13:24:49.210Z,71.46
2018-05-15T13:25:49.197Z,69.85
2018-05-15T13:26:49.192Z,70.24
2018-05-15T13:27:49.180Z,69.95
2018-05-15T13:28:49.183Z,70.43
2018-05-15T13:29:49.201Z,71.59
2018-05-15T13:30:49.171Z,71.20
2018-05-15T13:31:49.167Z,70.56
2018-05-15T13:32:49.163Z,70.86
2018-05-15T13:33:49.156Z,70.37
2018-05-15T13:34:49.150Z,69.60
2018-05-15T13:35:49.156Z,69.76
2018-05-15T13:36:49.142Z,68.99
2018-05-15T13:37:49.145Z,68.32
2018-05-15T13:38:49.136Z,68.60
2018-05-15T13:39:49.136Z,68.22
2018-05-15T13:40:49.128Z,68.13
2018-05-15T13:41:49.122Z,68.38
2018-05-15T13:42:49.120Z,68.19
2018-05-15T13:43:49.120Z,68.29
2018-05-15T13:44:49.112Z,71.17
2018-05-15T13:45:49.111Z,71.01
2018-05-15T13:46:49.103Z,72.74
2018-05-15T13:47:49.101Z,71.88
2018-05-15T13:48:49.100Z,72.17
2018-05-15T13:49:49.095Z,71.69
2018-05-15T13:50:49.099Z,71.88
2018-05-15T13:51:49.085Z,71.26
2018-05-15T13:52:49.082Z,70.88
2018-05-15T13:53:49.077Z,71.17
2018-05-15T13:54:49.075Z,71.94
2018-05-15T13:55:49.073Z,72.48
2018-05-15T13:56:49.070Z,74.02
2018-05-15T13:57:49.060Z,74.60
2018-05-15T13:58:49.059Z,75.81
2018-05-15T13:59:49.053Z,74.37
2018-05-15T14:00:49.052Z,75.71
2018-05-15T14:01:49.042Z,77.59
2018-05-15T14:02:49.047Z,77.88
2018-05-15T14:03:49.036Z,76.44
2018-05-15T14:04:49.038Z,76.82
2018-05-15T14:05:49.027Z,77.94
2018-05-15T14:06:49.023Z,78.80
2018-05-15T14:07:49.017Z,78.03
2018-05-15T14:08:49.013Z,78.03
2018-05-15T14:09:49.007Z,78.70
2018-05-15T14:10:49.006Z,78.42
2018-05-15T14:11:49.000Z,80.15
2018-05-15T14:12:48.997Z,78.47
2018-05-15T14:13:48.990Z,80.30
2018-05-15T14:14:48.985Z,80.97
2018-05-15T14:15:48.980Z,81.16
2018-05-15T14:16:48.974Z,80.87
2018-05-15T14:17:48.975Z,80.40
2018-05-15T14:18:48.966Z,80.58
2018-05-15T14:19:48.958Z,81.35
2018-05-15T14:20:48.951Z,81.64
2018-05-15T14:21:48.950Z,82.51
2018-05-15T14:22:48.947Z,82.12
2018-05-15T14:23:48.935Z,82.60
2018-05-15T14:24:48.944Z,82.70
2018-05-15T14:25:48.925Z,82.51
2018-05-15T14:26:48.918Z,83.04
2018-05-15T14:27:48.913Z,83.23
2018-05-15T14:28:48.911Z,83.14
2018-05-15T14:29:48.901Z,83.29
2018-05-15T14:30:48.903Z,84.53
2018-05-15T14:31:48.889Z,85.78
2018-05-15T14:32:48.890Z,84.34
2018-05-15T14:33:48.884Z,85.35
2018-05-15T14:34:48.873Z,86.31
2018-05-15T14:35:48.865Z,85.83
2018-05-15T14:36:48.864Z,84.58
2018-05-15T14:37:48.852Z,85.93
2018-05-15T14:38:48.845Z,86.69
2018-05-15T14:39:48.840Z,86.98
2018-05-15T14:40:48.843Z,87.27
2018-05-15T14:41:48.832Z,86.98